sensor_id;sensor_type;location;lat;lon;timestamp;P1;durP1;ratioP1;P2;durP2;ratioP2
37201;SDS011;37799;52.390;6.136;2023-08-06T00:01:41;5.60;;;1.67;;
37201;SDS011;37799;52.390;6.136;2023-08-06T00:04:07;6.80;;;1.92;;
37201;SDS011;37799;52.390;6.136;2023-08-06T00:06:32;5.80;;;1.73;;
37201;SDS011;37799;52.390;6.136;2023-08-06T00:08:57;5.38;;;1.80;;
37201;SDS011;37799;52.390;6.136;2023-08-06T00:11:23;5.80;;;1.88;;
37201;SDS011;37799;52.390;6.136;2023-08-06T00:13:48;6.45;;;2.00;;
37201;SDS011;37799;52.390;6.136;2023-08-06T00:16:13;6.50;;;2.28;;
37201;SDS011;37799;52.390;6.136;2023-08-06T00:18:39;5.13;;;1.42;;
37201;SDS011;37799;52.390;6.136;2023-08-06T00:21:05;4.82;;;1.40;;
37201;SDS011;37799;52.390;6.136;2023-08-06T00:23:30;7.20;;;1.73;;
37201;SDS011;37799;52.390;6.136;2023-08-06T00:25:56;5.63;;;1.67;;
37201;SDS011;37799;52.390;6.136;2023-08-06T00:28:21;5.93;;;1.95;;
37201;SDS011;37799;52.390;6.136;2023-08-06T00:30:52;4.57;;;1.50;;
37201;SDS011;37799;52.390;6.136;2023-08-06T00:35:43;6.63;;;1.30;;
37201;SDS011;37799;52.390;6.136;2023-08-06T00:38:08;4.57;;;1.42;;
37201;SDS011;37799;52.390;6.136;2023-08-06T00:40:34;5.00;;;1.52;;
37201;SDS011;37799;52.390;6.136;2023-08-06T00:42:59;6.25;;;1.65;;
37201;SDS011;37799;52.390;6.136;2023-08-06T00:45:24;7.10;;;2.08;;
37201;SDS011;37799;52.390;6.136;2023-08-06T00:47:50;5.15;;;1.63;;
37201;SDS011;37799;52.390;6.136;2023-08-06T00:50:16;8.07;;;2.13;;
37201;SDS011;37799;52.390;6.136;2023-08-06T00:52:42;5.88;;;1.83;;
37201;SDS011;37799;52.390;6.136;2023-08-06T00:55:08;4.90;;;1.52;;
37201;SDS011;37799;52.390;6.136;2023-08-06T00:57:34;5.68;;;1.75;;
37201;SDS011;37799;52.390;6.136;2023-08-06T01:00:00;6.45;;;1.90;;
37201;SDS011;37799;52.390;6.136;2023-08-06T01:02:26;8.82;;;2.35;;
37201;SDS011;37799;52.390;6.136;2023-08-06T01:04:51;6.28;;;1.85;;
37201;SDS011;37799;52.390;6.136;2023-08-06T01:10:23;6.90;;;1.85;;
37201;SDS011;37799;52.390;6.136;2023-08-06T01:13:08;7.03;;;1.92;;
37201;SDS011;37799;52.390;6.136;2023-08-06T01:15:46;6.15;;;1.50;;
37201;SDS011;37799;52.390;6.136;2023-08-06T01:18:14;5.53;;;1.48;;
37201;SDS011;37799;52.390;6.136;2023-08-06T01:20:40;6.55;;;1.88;;
37201;SDS011;37799;52.390;6.136;2023-08-06T01:23:05;4.78;;;1.27;;
37201;SDS011;37799;52.390;6.136;2023-08-06T01:25:34;8.57;;;2.20;;
37201;SDS011;37799;52.390;6.136;2023-08-06T01:28:23;6.50;;;1.95;;
37201;SDS011;37799;52.390;6.136;2023-08-06T01:30:56;6.82;;;2.10;;
37201;SDS011;37799;52.390;6.136;2023-08-06T01:33:26;6.10;;;1.53;;
37201;SDS011;37799;52.390;6.136;2023-08-06T01:35:54;6.28;;;1.98;;
37201;SDS011;37799;52.390;6.136;2023-08-06T01:38:20;8.10;;;1.90;;
37201;SDS011;37799;52.390;6.136;2023-08-06T01:40:46;6.90;;;1.90;;
37201;SDS011;37799;52.390;6.136;2023-08-06T01:43:11;6.25;;;2.05;;
37201;SDS011;37799;52.390;6.136;2023-08-06T01:45:37;4.40;;;1.17;;
37201;SDS011;37799;52.390;6.136;2023-08-06T01:48:02;7.05;;;1.58;;
37201;SDS011;37799;52.390;6.136;2023-08-06T01:50:28;6.38;;;1.95;;
37201;SDS011;37799;52.390;6.136;2023-08-06T01:52:53;7.78;;;2.25;;
37201;SDS011;37799;52.390;6.136;2023-08-06T01:55:18;5.90;;;1.67;;
37201;SDS011;37799;52.390;6.136;2023-08-06T01:57:43;8.70;;;1.92;;
37201;SDS011;37799;52.390;6.136;2023-08-06T02:00:10;5.80;;;1.63;;
37201;SDS011;37799;52.390;6.136;2023-08-06T02:02:36;6.63;;;1.83;;
37201;SDS011;37799;52.390;6.136;2023-08-06T02:05:01;5.95;;;2.00;;
37201;SDS011;37799;52.390;6.136;2023-08-06T02:07:26;5.38;;;1.92;;
37201;SDS011;37799;52.390;6.136;2023-08-06T02:09:51;5.25;;;1.33;;
37201;SDS011;37799;52.390;6.136;2023-08-06T02:12:17;4.47;;;1.20;;
37201;SDS011;37799;52.390;6.136;2023-08-06T02:14:42;6.10;;;1.30;;
37201;SDS011;37799;52.390;6.136;2023-08-06T02:17:07;7.75;;;1.83;;
37201;SDS011;37799;52.390;6.136;2023-08-06T02:19:33;8.85;;;2.28;;
37201;SDS011;37799;52.390;6.136;2023-08-06T02:21:58;7.38;;;2.22;;
37201;SDS011;37799;52.390;6.136;2023-08-06T02:24:23;5.68;;;1.80;;
37201;SDS011;37799;52.390;6.136;2023-08-06T02:26:49;4.90;;;1.67;;
37201;SDS011;37799;52.390;6.136;2023-08-06T02:29:16;6.40;;;1.55;;
37201;SDS011;37799;52.390;6.136;2023-08-06T02:31:42;5.93;;;1.42;;
37201;SDS011;37799;52.390;6.136;2023-08-06T02:34:07;5.15;;;1.73;;
37201;SDS011;37799;52.390;6.136;2023-08-06T02:36:32;8.32;;;2.85;;
37201;SDS011;37799;52.390;6.136;2023-08-06T02:38:58;7.40;;;1.70;;
37201;SDS011;37799;52.390;6.136;2023-08-06T02:41:23;6.80;;;1.90;;
37201;SDS011;37799;52.390;6.136;2023-08-06T02:43:49;5.18;;;1.38;;
37201;SDS011;37799;52.390;6.136;2023-08-06T02:46:14;6.78;;;1.55;;
37201;SDS011;37799;52.390;6.136;2023-08-06T02:48:39;7.82;;;2.00;;
37201;SDS011;37799;52.390;6.136;2023-08-06T02:51:05;6.25;;;1.92;;
37201;SDS011;37799;52.390;6.136;2023-08-06T02:53:30;5.88;;;1.65;;
37201;SDS011;37799;52.390;6.136;2023-08-06T02:55:56;5.25;;;1.48;;
37201;SDS011;37799;52.390;6.136;2023-08-06T02:58:22;7.75;;;1.92;;
37201;SDS011;37799;52.390;6.136;2023-08-06T03:01:00;6.55;;;1.88;;
37201;SDS011;37799;52.390;6.136;2023-08-06T03:03:33;7.25;;;1.88;;
37201;SDS011;37799;52.390;6.136;2023-08-06T03:05:58;6.13;;;1.95;;
37201;SDS011;37799;52.390;6.136;2023-08-06T03:08:24;5.25;;;1.60;;
37201;SDS011;37799;52.390;6.136;2023-08-06T03:10:50;5.70;;;1.52;;
37201;SDS011;37799;52.390;6.136;2023-08-06T03:13:17;5.15;;;1.60;;
37201;SDS011;37799;52.390;6.136;2023-08-06T03:15:43;5.15;;;1.73;;
37201;SDS011;37799;52.390;6.136;2023-08-06T03:18:09;5.80;;;1.75;;
37201;SDS011;37799;52.390;6.136;2023-08-06T03:20:34;7.30;;;1.98;;
37201;SDS011;37799;52.390;6.136;2023-08-06T03:22:59;7.70;;;1.48;;
37201;SDS011;37799;52.390;6.136;2023-08-06T03:25:25;7.07;;;1.92;;
37201;SDS011;37799;52.390;6.136;2023-08-06T03:27:50;4.70;;;1.58;;
37201;SDS011;37799;52.390;6.136;2023-08-06T03:30:15;5.47;;;1.50;;
37201;SDS011;37799;52.390;6.136;2023-08-06T03:32:41;6.30;;;1.75;;
37201;SDS011;37799;52.390;6.136;2023-08-06T03:35:06;5.43;;;1.98;;
37201;SDS011;37799;52.390;6.136;2023-08-06T03:37:32;5.57;;;1.67;;
37201;SDS011;37799;52.390;6.136;2023-08-06T03:39:57;4.88;;;1.55;;
37201;SDS011;37799;52.390;6.136;2023-08-06T03:42:23;7.05;;;1.63;;
37201;SDS011;37799;52.390;6.136;2023-08-06T03:44:48;5.13;;;1.05;;
37201;SDS011;37799;52.390;6.136;2023-08-06T03:47:13;6.65;;;1.38;;
37201;SDS011;37799;52.390;6.136;2023-08-06T03:49:39;5.78;;;1.30;;
37201;SDS011;37799;52.390;6.136;2023-08-06T03:52:04;6.90;;;1.35;;
37201;SDS011;37799;52.390;6.136;2023-08-06T03:54:30;5.75;;;1.55;;
37201;SDS011;37799;52.390;6.136;2023-08-06T03:56:56;6.50;;;2.20;;
37201;SDS011;37799;52.390;6.136;2023-08-06T03:59:21;6.50;;;2.13;;
37201;SDS011;37799;52.390;6.136;2023-08-06T04:01:46;6.13;;;1.75;;
37201;SDS011;37799;52.390;6.136;2023-08-06T04:04:12;5.25;;;1.38;;
37201;SDS011;37799;52.390;6.136;2023-08-06T04:06:37;5.70;;;1.50;;
37201;SDS011;37799;52.390;6.136;2023-08-06T04:09:02;7.72;;;1.92;;
37201;SDS011;37799;52.390;6.136;2023-08-06T04:11:28;7.65;;;2.05;;
37201;SDS011;37799;52.390;6.136;2023-08-06T04:13:53;6.15;;;1.80;;
37201;SDS011;37799;52.390;6.136;2023-08-06T04:16:20;5.82;;;1.77;;
37201;SDS011;37799;52.390;6.136;2023-08-06T04:18:46;6.25;;;2.00;;
37201;SDS011;37799;52.390;6.136;2023-08-06T04:21:11;6.65;;;2.10;;
37201;SDS011;37799;52.390;6.136;2023-08-06T04:23:37;5.75;;;2.08;;
37201;SDS011;37799;52.390;6.136;2023-08-06T04:26:02;5.25;;;1.65;;
37201;SDS011;37799;52.390;6.136;2023-08-06T04:28:27;7.65;;;1.60;;
37201;SDS011;37799;52.390;6.136;2023-08-06T04:30:53;7.43;;;2.13;;
37201;SDS011;37799;52.390;6.136;2023-08-06T04:33:18;6.57;;;1.90;;
37201;SDS011;37799;52.390;6.136;2023-08-06T04:35:44;6.32;;;1.83;;
37201;SDS011;37799;52.390;6.136;2023-08-06T04:38:10;6.55;;;1.98;;
37201;SDS011;37799;52.390;6.136;2023-08-06T04:40:35;5.72;;;1.80;;
37201;SDS011;37799;52.390;6.136;2023-08-06T04:43:01;6.18;;;2.05;;
37201;SDS011;37799;52.390;6.136;2023-08-06T04:45:26;6.15;;;1.75;;
37201;SDS011;37799;52.390;6.136;2023-08-06T04:47:52;5.35;;;1.60;;
37201;SDS011;37799;52.390;6.136;2023-08-06T04:50:19;6.90;;;2.35;;
37201;SDS011;37799;52.390;6.136;2023-08-06T04:52:45;8.32;;;2.42;;
37201;SDS011;37799;52.390;6.136;2023-08-06T04:55:10;9.00;;;2.33;;
37201;SDS011;37799;52.390;6.136;2023-08-06T04:57:36;5.97;;;1.90;;
37201;SDS011;37799;52.390;6.136;2023-08-06T05:00:01;5.70;;;1.55;;
37201;SDS011;37799;52.390;6.136;2023-08-06T05:02:27;5.18;;;1.77;;
37201;SDS011;37799;52.390;6.136;2023-08-06T05:04:52;5.60;;;1.52;;
37201;SDS011;37799;52.390;6.136;2023-08-06T05:07:18;6.97;;;2.03;;
37201;SDS011;37799;52.390;6.136;2023-08-06T05:09:43;6.10;;;2.00;;
37201;SDS011;37799;52.390;6.136;2023-08-06T05:12:08;7.03;;;2.17;;
37201;SDS011;37799;52.390;6.136;2023-08-06T05:14:34;6.70;;;2.33;;
37201;SDS011;37799;52.390;6.136;2023-08-06T05:16:59;5.72;;;1.85;;
37201;SDS011;37799;52.390;6.136;2023-08-06T05:19:27;7.88;;;2.58;;
37201;SDS011;37799;52.390;6.136;2023-08-06T05:21:52;7.10;;;2.50;;
37201;SDS011;37799;52.390;6.136;2023-08-06T05:24:17;8.90;;;2.53;;
37201;SDS011;37799;52.390;6.136;2023-08-06T05:26:43;6.55;;;1.92;;
37201;SDS011;37799;52.390;6.136;2023-08-06T05:29:11;5.57;;;2.03;;
37201;SDS011;37799;52.390;6.136;2023-08-06T05:31:37;8.23;;;2.63;;
37201;SDS011;37799;52.390;6.136;2023-08-06T05:34:02;6.82;;;1.85;;
37201;SDS011;37799;52.390;6.136;2023-08-06T05:36:28;8.05;;;2.60;;
37201;SDS011;37799;52.390;6.136;2023-08-06T05:38:53;6.95;;;1.85;;
37201;SDS011;37799;52.390;6.136;2023-08-06T05:41:18;7.28;;;2.17;;
37201;SDS011;37799;52.390;6.136;2023-08-06T05:43:44;8.05;;;2.60;;
37201;SDS011;37799;52.390;6.136;2023-08-06T05:46:10;7.72;;;2.55;;
37201;SDS011;37799;52.390;6.136;2023-08-06T05:48:35;6.95;;;2.28;;
37201;SDS011;37799;52.390;6.136;2023-08-06T05:51:00;6.55;;;2.17;;
37201;SDS011;37799;52.390;6.136;2023-08-06T05:53:26;6.80;;;1.70;;
37201;SDS011;37799;52.390;6.136;2023-08-06T05:55:51;7.32;;;2.72;;
37201;SDS011;37799;52.390;6.136;2023-08-06T05:58:17;8.13;;;2.55;;
37201;SDS011;37799;52.390;6.136;2023-08-06T06:00:42;7.20;;;2.38;;
37201;SDS011;37799;52.390;6.136;2023-08-06T06:03:08;7.72;;;2.58;;
37201;SDS011;37799;52.390;6.136;2023-08-06T06:05:33;6.55;;;2.00;;
37201;SDS011;37799;52.390;6.136;2023-08-06T06:07:58;8.00;;;2.58;;
37201;SDS011;37799;52.390;6.136;2023-08-06T06:10:24;8.88;;;2.97;;
37201;SDS011;37799;52.390;6.136;2023-08-06T06:12:49;8.55;;;3.50;;
37201;SDS011;37799;52.390;6.136;2023-08-06T06:15:15;6.50;;;2.90;;
37201;SDS011;37799;52.390;6.136;2023-08-06T06:17:40;8.88;;;2.90;;
37201;SDS011;37799;52.390;6.136;2023-08-06T06:20:05;8.38;;;2.78;;
37201;SDS011;37799;52.390;6.136;2023-08-06T06:22:31;8.00;;;2.47;;
37201;SDS011;37799;52.390;6.136;2023-08-06T06:24:57;8.90;;;2.78;;
37201;SDS011;37799;52.390;6.136;2023-08-06T06:27:22;10.52;;;3.13;;
37201;SDS011;37799;52.390;6.136;2023-08-06T06:29:47;7.95;;;2.55;;
37201;SDS011;37799;52.390;6.136;2023-08-06T06:32:13;7.82;;;2.83;;
37201;SDS011;37799;52.390;6.136;2023-08-06T06:34:38;8.27;;;2.75;;
37201;SDS011;37799;52.390;6.136;2023-08-06T06:37:04;7.78;;;2.55;;
37201;SDS011;37799;52.390;6.136;2023-08-06T06:39:29;8.48;;;2.97;;
37201;SDS011;37799;52.390;6.136;2023-08-06T06:41:55;7.97;;;2.50;;
37201;SDS011;37799;52.390;6.136;2023-08-06T06:44:20;8.40;;;2.75;;
37201;SDS011;37799;52.390;6.136;2023-08-06T06:46:46;7.47;;;2.30;;
37201;SDS011;37799;52.390;6.136;2023-08-06T06:49:11;7.05;;;2.22;;
37201;SDS011;37799;52.390;6.136;2023-08-06T06:51:37;6.93;;;2.28;;
37201;SDS011;37799;52.390;6.136;2023-08-06T06:54:02;6.47;;;2.08;;
37201;SDS011;37799;52.390;6.136;2023-08-06T06:56:27;7.93;;;2.05;;
37201;SDS011;37799;52.390;6.136;2023-08-06T06:58:53;6.90;;;2.05;;
37201;SDS011;37799;52.390;6.136;2023-08-06T07:01:18;6.13;;;1.92;;
37201;SDS011;37799;52.390;6.136;2023-08-06T07:03:44;6.78;;;1.90;;
37201;SDS011;37799;52.390;6.136;2023-08-06T07:06:09;6.68;;;1.92;;
37201;SDS011;37799;52.390;6.136;2023-08-06T07:08:34;5.88;;;1.83;;
37201;SDS011;37799;52.390;6.136;2023-08-06T07:11:03;6.95;;;2.03;;
37201;SDS011;37799;52.390;6.136;2023-08-06T07:13:30;6.10;;;2.15;;
37201;SDS011;37799;52.390;6.136;2023-08-06T07:15:56;5.63;;;1.75;;
37201;SDS011;37799;52.390;6.136;2023-08-06T07:18:21;7.03;;;1.88;;
37201;SDS011;37799;52.390;6.136;2023-08-06T07:20:48;6.80;;;2.17;;
37201;SDS011;37799;52.390;6.136;2023-08-06T07:23:17;6.10;;;1.92;;
37201;SDS011;37799;52.390;6.136;2023-08-06T07:25:43;6.25;;;1.85;;
37201;SDS011;37799;52.390;6.136;2023-08-06T07:28:09;7.22;;;2.30;;
37201;SDS011;37799;52.390;6.136;2023-08-06T07:30:38;7.03;;;1.88;;
37201;SDS011;37799;52.390;6.136;2023-08-06T07:33:04;5.63;;;1.77;;
37201;SDS011;37799;52.390;6.136;2023-08-06T07:35:29;6.90;;;2.15;;
37201;SDS011;37799;52.390;6.136;2023-08-06T07:37:55;5.05;;;1.63;;
37201;SDS011;37799;52.390;6.136;2023-08-06T07:40:20;6.68;;;2.40;;
37201;SDS011;37799;52.390;6.136;2023-08-06T07:42:45;7.13;;;2.17;;
37201;SDS011;37799;52.390;6.136;2023-08-06T07:45:11;6.00;;;1.63;;
37201;SDS011;37799;52.390;6.136;2023-08-06T07:47:36;6.65;;;1.75;;
37201;SDS011;37799;52.390;6.136;2023-08-06T07:50:02;5.13;;;1.75;;
37201;SDS011;37799;52.390;6.136;2023-08-06T07:52:27;5.97;;;1.90;;
37201;SDS011;37799;52.390;6.136;2023-08-06T07:54:52;10.07;;;2.30;;
37201;SDS011;37799;52.390;6.136;2023-08-06T07:57:18;7.07;;;2.40;;
37201;SDS011;37799;52.390;6.136;2023-08-06T07:59:43;5.35;;;1.85;;
37201;SDS011;37799;52.390;6.136;2023-08-06T08:02:08;6.35;;;2.17;;
37201;SDS011;37799;52.390;6.136;2023-08-06T08:04:34;6.15;;;1.90;;
37201;SDS011;37799;52.390;6.136;2023-08-06T08:06:59;6.43;;;2.40;;
37201;SDS011;37799;52.390;6.136;2023-08-06T08:09:24;6.47;;;2.08;;
37201;SDS011;37799;52.390;6.136;2023-08-06T08:11:50;6.50;;;2.22;;
37201;SDS011;37799;52.390;6.136;2023-08-06T08:14:15;5.88;;;2.20;;
37201;SDS011;37799;52.390;6.136;2023-08-06T08:16:41;6.18;;;1.85;;
37201;SDS011;37799;52.390;6.136;2023-08-06T08:19:06;5.85;;;1.67;;
37201;SDS011;37799;52.390;6.136;2023-08-06T08:21:32;7.68;;;1.85;;
37201;SDS011;37799;52.390;6.136;2023-08-06T08:23:59;8.55;;;2.15;;
37201;SDS011;37799;52.390;6.136;2023-08-06T08:26:25;8.18;;;2.60;;
37201;SDS011;37799;52.390;6.136;2023-08-06T08:28:52;8.30;;;2.40;;
37201;SDS011;37799;52.390;6.136;2023-08-06T08:31:18;9.88;;;2.63;;
37201;SDS011;37799;52.390;6.136;2023-08-06T08:33:43;7.93;;;2.60;;
37201;SDS011;37799;52.390;6.136;2023-08-06T08:36:09;6.82;;;2.30;;
37201;SDS011;37799;52.390;6.136;2023-08-06T08:38:35;6.95;;;2.35;;
37201;SDS011;37799;52.390;6.136;2023-08-06T08:41:00;6.53;;;2.38;;
37201;SDS011;37799;52.390;6.136;2023-08-06T08:43:26;6.25;;;2.05;;
37201;SDS011;37799;52.390;6.136;2023-08-06T08:45:52;5.47;;;2.25;;
37201;SDS011;37799;52.390;6.136;2023-08-06T08:48:26;6.13;;;2.15;;
37201;SDS011;37799;52.390;6.136;2023-08-06T08:50:53;6.60;;;1.73;;
37201;SDS011;37799;52.390;6.136;2023-08-06T08:53:18;7.75;;;2.30;;
37201;SDS011;37799;52.390;6.136;2023-08-06T08:55:49;6.70;;;2.42;;
37201;SDS011;37799;52.390;6.136;2023-08-06T08:58:15;6.40;;;1.90;;
37201;SDS011;37799;52.390;6.136;2023-08-06T09:00:45;7.50;;;2.38;;
37201;SDS011;37799;52.390;6.136;2023-08-06T09:03:11;6.93;;;2.00;;
37201;SDS011;37799;52.390;6.136;2023-08-06T09:05:37;6.93;;;2.28;;
37201;SDS011;37799;52.390;6.136;2023-08-06T09:08:08;7.07;;;2.60;;
37201;SDS011;37799;52.390;6.136;2023-08-06T09:10:39;6.83;;;2.07;;
37201;SDS011;37799;52.390;6.136;2023-08-06T09:13:06;8.10;;;3.00;;
37201;SDS011;37799;52.390;6.136;2023-08-06T09:15:31;7.78;;;2.33;;
37201;SDS011;37799;52.390;6.136;2023-08-06T09:17:58;7.80;;;2.63;;
37201;SDS011;37799;52.390;6.136;2023-08-06T09:20:23;6.03;;;2.08;;
37201;SDS011;37799;52.390;6.136;2023-08-06T09:22:49;5.25;;;1.65;;
37201;SDS011;37799;52.390;6.136;2023-08-06T09:25:22;6.18;;;2.03;;
37201;SDS011;37799;52.390;6.136;2023-08-06T09:27:49;5.90;;;1.52;;
37201;SDS011;37799;52.390;6.136;2023-08-06T09:30:28;6.38;;;2.08;;
37201;SDS011;37799;52.390;6.136;2023-08-06T09:32:56;6.07;;;1.92;;
37201;SDS011;37799;52.390;6.136;2023-08-06T09:35:21;6.30;;;1.92;;
37201;SDS011;37799;52.390;6.136;2023-08-06T09:37:47;6.38;;;2.17;;
37201;SDS011;37799;52.390;6.136;2023-08-06T09:40:25;5.50;;;1.90;;
37201;SDS011;37799;52.390;6.136;2023-08-06T09:42:55;5.43;;;1.48;;
37201;SDS011;37799;52.390;6.136;2023-08-06T09:45:21;5.38;;;1.90;;
37201;SDS011;37799;52.390;6.136;2023-08-06T09:47:48;5.57;;;2.10;;
37201;SDS011;37799;52.390;6.136;2023-08-06T09:50:20;9.35;;;2.05;;
37201;SDS011;37799;52.390;6.136;2023-08-06T09:52:48;6.47;;;1.85;;
37201;SDS011;37799;52.390;6.136;2023-08-06T09:57:42;5.10;;;1.23;;
37201;SDS011;37799;52.390;6.136;2023-08-06T10:00:08;5.75;;;1.63;;
37201;SDS011;37799;52.390;6.136;2023-08-06T10:02:38;3.97;;;1.38;;
37201;SDS011;37799;52.390;6.136;2023-08-06T10:05:04;4.97;;;1.52;;
37201;SDS011;37799;52.390;6.136;2023-08-06T10:07:31;5.80;;;1.60;;
37201;SDS011;37799;52.390;6.136;2023-08-06T10:09:56;5.03;;;1.35;;
37201;SDS011;37799;52.390;6.136;2023-08-06T10:12:22;4.80;;;1.55;;
37201;SDS011;37799;52.390;6.136;2023-08-06T10:14:50;4.03;;;1.33;;
37201;SDS011;37799;52.390;6.136;2023-08-06T10:17:18;4.93;;;1.33;;
37201;SDS011;37799;52.390;6.136;2023-08-06T10:19:45;6.82;;;1.63;;
37201;SDS011;37799;52.390;6.136;2023-08-06T10:22:17;4.45;;;1.13;;
37201;SDS011;37799;52.390;6.136;2023-08-06T10:33:01;4.65;;;1.30;;
37201;SDS011;37799;52.390;6.136;2023-08-06T10:38:06;5.47;;;1.77;;
37201;SDS011;37799;52.390;6.136;2023-08-06T10:40:32;5.00;;;1.70;;
37201;SDS011;37799;52.390;6.136;2023-08-06T10:42:58;5.40;;;1.58;;
37201;SDS011;37799;52.390;6.136;2023-08-06T10:45:28;4.72;;;1.40;;
37201;SDS011;37799;52.390;6.136;2023-08-06T10:47:58;4.10;;;1.45;;
37201;SDS011;37799;52.390;6.136;2023-08-06T10:50:24;4.00;;;1.30;;
37201;SDS011;37799;52.390;6.136;2023-08-06T10:52:50;4.72;;;1.50;;
37201;SDS011;37799;52.390;6.136;2023-08-06T10:55:28;4.20;;;1.30;;
37201;SDS011;37799;52.390;6.136;2023-08-06T10:57:54;4.18;;;1.23;;
37201;SDS011;37799;52.390;6.136;2023-08-06T11:00:21;5.07;;;1.20;;
37201;SDS011;37799;52.390;6.136;2023-08-06T11:02:48;5.05;;;1.50;;
37201;SDS011;37799;52.390;6.136;2023-08-06T11:05:15;3.97;;;1.23;;
37201;SDS011;37799;52.390;6.136;2023-08-06T11:07:40;4.07;;;1.42;;
37201;SDS011;37799;52.390;6.136;2023-08-06T11:10:08;3.60;;;0.95;;
37201;SDS011;37799;52.390;6.136;2023-08-06T11:12:34;4.93;;;1.60;;
37201;SDS011;37799;52.390;6.136;2023-08-06T11:15:00;3.22;;;0.98;;
37201;SDS011;37799;52.390;6.136;2023-08-06T11:17:27;4.25;;;1.40;;
37201;SDS011;37799;52.390;6.136;2023-08-06T11:19:54;4.57;;;1.50;;
37201;SDS011;37799;52.390;6.136;2023-08-06T11:22:20;4.65;;;1.40;;
37201;SDS011;37799;52.390;6.136;2023-08-06T11:24:47;3.88;;;1.35;;
37201;SDS011;37799;52.390;6.136;2023-08-06T11:27:13;3.30;;;1.00;;
37201;SDS011;37799;52.390;6.136;2023-08-06T11:29:43;4.13;;;1.23;;
37201;SDS011;37799;52.390;6.136;2023-08-06T11:32:09;5.10;;;1.52;;
37201;SDS011;37799;52.390;6.136;2023-08-06T11:34:36;2.72;;;0.80;;
37201;SDS011;37799;52.390;6.136;2023-08-06T11:37:02;5.50;;;1.38;;
37201;SDS011;37799;52.390;6.136;2023-08-06T11:39:30;4.43;;;1.27;;
37201;SDS011;37799;52.390;6.136;2023-08-06T11:41:57;3.22;;;0.70;;
37201;SDS011;37799;52.390;6.136;2023-08-06T11:44:25;4.05;;;1.30;;
37201;SDS011;37799;52.390;6.136;2023-08-06T11:46:54;4.32;;;1.58;;
37201;SDS011;37799;52.390;6.136;2023-08-06T11:52:14;4.10;;;1.35;;
37201;SDS011;37799;52.390;6.136;2023-08-06T11:54:45;3.30;;;1.15;;
37201;SDS011;37799;52.390;6.136;2023-08-06T11:57:11;3.88;;;1.23;;
37201;SDS011;37799;52.390;6.136;2023-08-06T11:59:38;3.88;;;1.25;;
37201;SDS011;37799;52.390;6.136;2023-08-06T12:02:04;3.15;;;1.02;;
37201;SDS011;37799;52.390;6.136;2023-08-06T12:04:56;4.70;;;1.35;;
37201;SDS011;37799;52.390;6.136;2023-08-06T12:07:30;4.65;;;1.17;;
37201;SDS011;37799;52.390;6.136;2023-08-06T12:10:01;4.70;;;1.30;;
37201;SDS011;37799;52.390;6.136;2023-08-06T12:12:28;3.92;;;1.08;;
37201;SDS011;37799;52.390;6.136;2023-08-06T12:15:04;3.88;;;1.20;;
37201;SDS011;37799;52.390;6.136;2023-08-06T12:17:34;3.90;;;1.08;;
37201;SDS011;37799;52.390;6.136;2023-08-06T12:20:00;4.15;;;1.17;;
37201;SDS011;37799;52.390;6.136;2023-08-06T12:22:25;4.38;;;1.30;;
37201;SDS011;37799;52.390;6.136;2023-08-06T12:24:51;4.25;;;1.30;;
37201;SDS011;37799;52.390;6.136;2023-08-06T12:27:17;5.28;;;1.98;;
37201;SDS011;37799;52.390;6.136;2023-08-06T12:29:43;5.30;;;1.75;;
37201;SDS011;37799;52.390;6.136;2023-08-06T12:32:10;5.53;;;1.70;;
37201;SDS011;37799;52.390;6.136;2023-08-06T12:34:36;6.05;;;2.00;;
37201;SDS011;37799;52.390;6.136;2023-08-06T12:37:02;6.00;;;2.13;;
37201;SDS011;37799;52.390;6.136;2023-08-06T12:39:28;6.07;;;2.22;;
37201;SDS011;37799;52.390;6.136;2023-08-06T12:41:56;6.35;;;2.30;;
37201;SDS011;37799;52.390;6.136;2023-08-06T12:44:23;5.88;;;1.95;;
37201;SDS011;37799;52.390;6.136;2023-08-06T12:46:49;6.55;;;2.45;;
37201;SDS011;37799;52.390;6.136;2023-08-06T12:49:15;6.00;;;1.75;;
37201;SDS011;37799;52.390;6.136;2023-08-06T12:51:40;5.90;;;2.28;;
37201;SDS011;37799;52.390;6.136;2023-08-06T12:54:05;5.85;;;1.83;;
37201;SDS011;37799;52.390;6.136;2023-08-06T12:56:31;5.85;;;1.85;;
37201;SDS011;37799;52.390;6.136;2023-08-06T12:58:56;6.80;;;2.42;;
37201;SDS011;37799;52.390;6.136;2023-08-06T13:01:21;6.05;;;2.10;;
37201;SDS011;37799;52.390;6.136;2023-08-06T13:03:47;5.93;;;2.13;;
37201;SDS011;37799;52.390;6.136;2023-08-06T13:06:12;4.80;;;1.33;;
37201;SDS011;37799;52.390;6.136;2023-08-06T13:08:38;6.75;;;1.80;;
37201;SDS011;37799;52.390;6.136;2023-08-06T13:11:03;6.30;;;1.60;;
37201;SDS011;37799;52.390;6.136;2023-08-06T13:13:29;5.70;;;1.20;;
37201;SDS011;37799;52.390;6.136;2023-08-06T13:15:55;3.42;;;1.00;;
37201;SDS011;37799;52.390;6.136;2023-08-06T13:18:20;3.78;;;0.88;;
37201;SDS011;37799;52.390;6.136;2023-08-06T13:20:46;4.00;;;1.15;;
37201;SDS011;37799;52.390;6.136;2023-08-06T13:23:13;2.95;;;0.70;;
37201;SDS011;37799;52.390;6.136;2023-08-06T13:25:41;3.05;;;0.85;;
37201;SDS011;37799;52.390;6.136;2023-08-06T13:28:06;3.30;;;0.70;;
37201;SDS011;37799;52.390;6.136;2023-08-06T13:30:32;2.70;;;0.38;;
37201;SDS011;37799;52.390;6.136;2023-08-06T13:32:59;2.40;;;0.50;;
37201;SDS011;37799;52.390;6.136;2023-08-06T13:35:25;1.85;;;0.50;;
37201;SDS011;37799;52.390;6.136;2023-08-06T13:37:50;2.45;;;0.40;;
37201;SDS011;37799;52.390;6.136;2023-08-06T13:40:15;1.45;;;0.30;;
37201;SDS011;37799;52.390;6.136;2023-08-06T13:42:41;2.53;;;0.57;;
37201;SDS011;37799;52.390;6.136;2023-08-06T13:45:07;1.70;;;0.30;;
37201;SDS011;37799;52.390;6.136;2023-08-06T13:47:32;2.65;;;0.80;;
37201;SDS011;37799;52.390;6.136;2023-08-06T13:49:58;2.78;;;0.93;;
37201;SDS011;37799;52.390;6.136;2023-08-06T13:52:25;2.45;;;0.70;;
37201;SDS011;37799;52.390;6.136;2023-08-06T13:54:50;2.22;;;0.60;;
37201;SDS011;37799;52.390;6.136;2023-08-06T13:57:26;2.55;;;0.68;;
37201;SDS011;37799;52.390;6.136;2023-08-06T13:59:53;2.03;;;0.52;;
37201;SDS011;37799;52.390;6.136;2023-08-06T14:02:19;3.30;;;0.60;;
37201;SDS011;37799;52.390;6.136;2023-08-06T14:04:44;2.35;;;0.60;;
37201;SDS011;37799;52.390;6.136;2023-08-06T14:07:10;2.17;;;0.50;;
37201;SDS011;37799;52.390;6.136;2023-08-06T14:09:58;2.70;;;0.60;;
37201;SDS011;37799;52.390;6.136;2023-08-06T14:12:57;3.03;;;0.70;;
37201;SDS011;37799;52.390;6.136;2023-08-06T14:15:22;3.92;;;0.77;;
37201;SDS011;37799;52.390;6.136;2023-08-06T14:17:48;3.00;;;0.70;;
37201;SDS011;37799;52.390;6.136;2023-08-06T14:20:14;1.40;;;0.45;;
37201;SDS011;37799;52.390;6.136;2023-08-06T14:22:39;2.90;;;0.60;;
37201;SDS011;37799;52.390;6.136;2023-08-06T14:25:06;3.45;;;0.70;;
37201;SDS011;37799;52.390;6.136;2023-08-06T14:27:32;2.75;;;0.90;;
37201;SDS011;37799;52.390;6.136;2023-08-06T14:30:03;3.25;;;0.65;;
37201;SDS011;37799;52.390;6.136;2023-08-06T14:32:31;2.28;;;0.55;;
37201;SDS011;37799;52.390;6.136;2023-08-06T14:34:57;2.05;;;0.60;;
37201;SDS011;37799;52.390;6.136;2023-08-06T14:37:23;1.42;;;0.30;;
37201;SDS011;37799;52.390;6.136;2023-08-06T14:39:49;2.70;;;1.23;;
37201;SDS011;37799;52.390;6.136;2023-08-06T14:42:16;3.17;;;0.32;;
37201;SDS011;37799;52.390;6.136;2023-08-06T14:44:42;0.98;;;0.20;;
37201;SDS011;37799;52.390;6.136;2023-08-06T14:47:08;1.95;;;0.40;;
37201;SDS011;37799;52.390;6.136;2023-08-06T14:49:33;1.83;;;0.50;;
37201;SDS011;37799;52.390;6.136;2023-08-06T14:51:58;2.55;;;0.30;;
37201;SDS011;37799;52.390;6.136;2023-08-06T14:54:26;1.33;;;0.38;;
37201;SDS011;37799;52.390;6.136;2023-08-06T14:56:52;1.10;;;0.20;;
37201;SDS011;37799;52.390;6.136;2023-08-06T14:59:17;0.38;;;0.10;;
37201;SDS011;37799;52.390;6.136;2023-08-06T15:01:43;0.88;;;0.20;;
37201;SDS011;37799;52.390;6.136;2023-08-06T15:04:08;1.02;;;0.30;;
37201;SDS011;37799;52.390;6.136;2023-08-06T15:06:33;1.65;;;0.30;;